createdAt,value
2022-10-05T00:02:19.474Z,101417.17
2022-10-05T00:04:48.245Z,101413.19
2022-10-05T00:07:17.239Z,101414.98
2022-10-05T00:09:46.030Z,101419.06
2022-10-05T00:12:18.449Z,101418.76
2022-10-05T00:14:47.456Z,101418.96
2022-10-05T00:17:20.233Z,101417.17
2022-10-05T00:19:52.215Z,101417.38
2022-10-05T00:22:28.877Z,101415.30
2022-10-05T00:24:58.292Z,101414.52
2022-10-05T00:27:27.151Z,101406.52
2022-10-05T00:29:57.997Z,101397.27
2022-10-05T00:32:26.970Z,101393.73
2022-10-05T00:34:54.781Z,101389.33
2022-10-05T00:37:22.482Z,101375.57
2022-10-05T00:39:50.277Z,101364.95
2022-10-05T00:42:45.895Z,101357.61
2022-10-05T00:45:16.185Z,101365.16
2022-10-05T00:48:02.930Z,101369.81
2022-10-05T00:50:46.945Z,101375.52
2022-10-05T00:53:24.014Z,101381.25
2022-10-05T00:56:15.109Z,101384.41
2022-10-05T00:58:45.854Z,101384.73
2022-10-05T01:01:15.567Z,101378.98
2022-10-05T01:03:52.672Z,101375.17
2022-10-05T01:06:39.409Z,101368.20
2022-10-05T01:09:16.291Z,101367.08
2022-10-05T01:12:10.408Z,101372.98
2022-10-05T01:14:44.888Z,101372.79
2022-10-05T01:17:18.656Z,101375.19
2022-10-05T01:19:56.910Z,101374.84
2022-10-05T01:22:36.572Z,101373.83
2022-10-05T01:25:23.897Z,101371.48
2022-10-05T01:28:07.154Z,101370.15
2022-10-05T01:30:37.825Z,101363.71
2022-10-05T01:33:17.594Z,101365.02
2022-10-05T01:36:05.428Z,101371.70
2022-10-05T01:38:36.109Z,101368.70
2022-10-05T01:41:23.886Z,101367.05
2022-10-05T01:43:54.665Z,101366.70
2022-10-05T01:46:28.987Z,101363.40
2022-10-05T01:49:08.366Z,101361.86
2022-10-05T01:51:51.917Z,101364.41
2022-10-05T01:54:29.018Z,101362.73
2022-10-05T01:57:12.458Z,101362.23
2022-10-05T01:59:45.364Z,101359.63
2022-10-05T02:02:17.155Z,101359.06
2022-10-05T02:05:03.919Z,101352.70
2022-10-05T02:07:50.903Z,101353.07
2022-10-05T02:10:28.929Z,101348.64
2022-10-05T02:13:12.884Z,101344.95
2022-10-05T02:15:44.775Z,101347.48
2022-10-05T02:18:19.358Z,101343.83
2022-10-05T02:20:47.619Z,101345.92
2022-10-05T02:23:19.409Z,101344.14
2022-10-05T02:25:49.796Z,101334.52
2022-10-05T02:28:36.924Z,101324.78
2022-10-05T02:31:14.177Z,101321.56
2022-10-05T02:33:41.849Z,101322.81
2022-10-05T02:36:16.048Z,101324.16
2022-10-05T02:39:05.954Z,101324.55
2022-10-05T02:41:51.448Z,101326.84
2022-10-05T02:44:22.269Z,101336.29
2022-10-05T02:47:11.420Z,101343.89
2022-10-05T02:49:49.485Z,101345.84
2022-10-05T02:52:27.786Z,101344.16
2022-10-05T02:55:02.241Z,101341.42
2022-10-05T02:57:42.586Z,101335.33
2022-10-05T03:00:10.330Z,101333.20
2022-10-05T03:02:38.194Z,101332.70
2022-10-05T03:05:19.053Z,101325.62
2022-10-05T03:07:50.592Z,101321.44
2022-10-05T03:10:28.515Z,101317.34
2022-10-05T03:13:09.625Z,101311.42
2022-10-05T03:15:37.365Z,101310.48
2022-10-05T03:18:11.276Z,101312.54
2022-10-05T03:20:38.914Z,101307.02
2022-10-05T03:23:11.410Z,101311.95
2022-10-05T03:25:56.876Z,101313.16
2022-10-05T03:28:27.569Z,101316.05
2022-10-05T03:31:04.746Z,101317.74
2022-10-05T03:33:42.371Z,101322.80
2022-10-05T03:36:21.414Z,101320.02
2022-10-05T03:39:00.845Z,101312.60
2022-10-05T03:41:35.276Z,101314.95
2022-10-05T03:44:04.176Z,101313.52
2022-10-05T03:46:50.604Z,101306.78
2022-10-05T03:49:32.195Z,101304.99
2022-10-05T03:52:10.682Z,101308.06
2022-10-05T03:54:41.503Z,101314.59
2022-10-05T03:57:15.645Z,101321.02
2022-10-05T03:59:54.657Z,101325.14
2022-10-05T04:02:28.524Z,101328.76
2022-10-05T04:05:14.263Z,101330.53
2022-10-05T04:07:51.112Z,101327.60
2022-10-05T04:10:26.323Z,101315.89
2022-10-05T04:12:58.134Z,101314.41
2022-10-05T04:15:42.749Z,101308.06
2022-10-05T04:18:16.744Z,101311.52
2022-10-05T04:20:46.919Z,101317.77
2022-10-05T04:23:19.548Z,101318.26
2022-10-05T04:26:10.612Z,101314.46
2022-10-05T04:28:48.821Z,101315.95
2022-10-05T04:31:23.378Z,101311.52
2022-10-05T04:33:57.870Z,101321.82
2022-10-05T04:36:30.636Z,101326.04
2022-10-05T04:38:58.542Z,101323.20
2022-10-05T04:41:43.538Z,101326.55
2022-10-05T04:44:22.845Z,101327.11
2022-10-05T04:47:06.635Z,101321.86
2022-10-05T04:49:47.615Z,101317.55
2022-10-05T04:52:23.525Z,101320.80
2022-10-05T04:55:04.239Z,101320.70
2022-10-05T04:57:38.285Z,101324.17
2022-10-05T05:00:25.972Z,101319.26
2022-10-05T05:02:55.513Z,101320.21
2022-10-05T05:05:27.919Z,101321.27
2022-10-05T05:08:15.583Z,101321.32
2022-10-05T05:10:46.599Z,101318.12
2022-10-05T05:13:42.198Z,101322.44
2022-10-05T05:16:30.489Z,101326.20
2022-10-05T05:19:13.617Z,101319.48
2022-10-05T05:21:50.783Z,101306.95
2022-10-05T05:24:37.450Z,101307.13
2022-10-05T05:27:30.089Z,101309.73
2022-10-05T05:30:01.335Z,101315.59
2022-10-05T05:32:40.550Z,101310.38
2022-10-05T05:35:08.554Z,101309.24
2022-10-05T05:37:47.105Z,101308.91
2022-10-05T05:40:15.061Z,101305.56
2022-10-05T05:42:52.196Z,101297.27
2022-10-05T05:45:32.235Z,101302.58
2022-10-05T05:48:02.512Z,101309.75
2022-10-05T05:50:32.337Z,101309.98
2022-10-05T05:53:06.532Z,101309.84
2022-10-05T05:55:42.508Z,101309.45
2022-10-05T05:58:17.416Z,101307.98
2022-10-05T06:00:51.260Z,101311.90
2022-10-05T06:03:19.257Z,101308.10
2022-10-05T06:05:49.961Z,101312.27
2022-10-05T06:08:30.288Z,101307.73
2022-10-05T06:11:16.611Z,101304.95
2022-10-05T06:13:45.132Z,101311.90
2022-10-05T06:16:22.467Z,101309.10
2022-10-05T06:19:04.045Z,101311.52
2022-10-05T06:21:34.663Z,101309.83
2022-10-05T06:24:03.351Z,101310.98
2022-10-05T06:26:31.322Z,101309.80
2022-10-05T06:29:02.600Z,101315.22
2022-10-05T06:31:42.738Z,101316.71
2022-10-05T06:34:25.221Z,101314.48
2022-10-05T06:36:58.636Z,101313.92
2022-10-05T06:39:32.458Z,101311.51
2022-10-05T06:42:20.869Z,101310.36
2022-10-05T06:45:22.215Z,101306.87
2022-10-05T06:48:05.638Z,101308.33
2022-10-05T06:50:52.590Z,101307.73
2022-10-05T06:53:48.476Z,101310.50
2022-10-05T06:56:29.688Z,101306.33
2022-10-05T06:59:08.272Z,101304.59
2022-10-05T07:01:56.105Z,101300.09
2022-10-05T07:04:42.432Z,101301.43
2022-10-05T07:07:15.063Z,101301.96
2022-10-05T07:09:56.990Z,101299.34
2022-10-05T07:12:41.539Z,101302.83
2022-10-05T07:15:19.538Z,101298.40
2022-10-05T07:18:04.853Z,101296.76
2022-10-05T07:20:37.165Z,101292.69
2022-10-05T07:23:14.219Z,101294.14
2022-10-05T07:25:46.619Z,101285.04
2022-10-05T07:28:39.220Z,101282.39
2022-10-05T07:31:09.734Z,101281.95
2022-10-05T07:33:46.490Z,101278.85
2022-10-05T07:36:54.402Z,101273.34
2022-10-05T07:39:59.217Z,101279.17
2022-10-05T07:42:48.967Z,101284.90
2022-10-05T07:45:29.789Z,101287.40
2022-10-05T07:48:01.742Z,101281.56
2022-10-05T07:50:36.970Z,101281.72
2022-10-05T07:53:14.764Z,101276.54
2022-10-05T07:55:47.106Z,101273.73
2022-10-05T07:58:15.232Z,101283.69
2022-10-05T08:01:02.084Z,101284.99
2022-10-05T08:03:45.903Z,101284.80
2022-10-05T08:06:27.821Z,101284.83
2022-10-05T08:09:14.584Z,101281.48
2022-10-05T08:11:48.846Z,101279.73
2022-10-05T08:14:22.493Z,101277.45
2022-10-05T08:16:52.597Z,101275.90
2022-10-05T08:19:23.661Z,101281.76
2022-10-05T08:21:55.459Z,101283.92
2022-10-05T08:24:23.065Z,101280.17
2022-10-05T08:26:53.913Z,101275.66
2022-10-05T08:29:21.631Z,101275.46
2022-10-05T08:31:51.917Z,101272.13
2022-10-05T08:34:22.644Z,101279.33
2022-10-05T08:37:13.019Z,101287.48
2022-10-05T08:39:42.753Z,101288.48
2022-10-05T08:42:13.613Z,101287.64
2022-10-05T08:45:02.987Z,101287.08
2022-10-05T08:47:35.124Z,101292.19
2022-10-05T08:50:21.758Z,101289.96
2022-10-05T08:53:04.896Z,101292.20
2022-10-05T08:55:41.622Z,101295.06
2022-10-05T08:58:15.570Z,101300.79
2022-10-05T09:01:06.248Z,101296.55
2022-10-05T09:03:48.826Z,101292.00
2022-10-05T09:06:25.865Z,101280.76
2022-10-05T09:09:16.855Z,101277.48
2022-10-05T09:12:09.476Z,101270.73
2022-10-05T09:15:13.653Z,101271.92
2022-10-05T09:17:50.161Z,101267.27
2022-10-05T09:20:23.099Z,101260.63
2022-10-05T09:22:50.913Z,101260.27
2022-10-05T09:25:23.485Z,101266.66
2022-10-05T09:28:17.409Z,101271.97
2022-10-05T09:30:48.212Z,101273.48
2022-10-05T09:33:34.974Z,101273.66
2022-10-05T09:36:09.267Z,101274.13
2022-10-05T09:38:46.114Z,101271.45
2022-10-05T09:41:33.023Z,101274.65
2022-10-05T09:44:00.777Z,101275.58
2022-10-05T09:46:43.886Z,101273.77
2022-10-05T09:49:17.840Z,101271.09
2022-10-05T09:52:06.010Z,101269.43
2022-10-05T09:55:01.393Z,101262.35
2022-10-05T09:57:50.840Z,101257.89
2022-10-05T10:00:29.767Z,101252.01
2022-10-05T10:03:04.906Z,101252.60
2022-10-05T10:05:32.586Z,101251.19
2022-10-05T10:08:00.266Z,101243.88
2022-10-05T10:10:42.038Z,101247.16
2022-10-05T10:13:15.675Z,101249.27
2022-10-05T10:16:02.256Z,101243.81
2022-10-05T10:18:42.195Z,101240.33
2022-10-05T10:21:12.589Z,101238.65
2022-10-05T10:24:00.375Z,101235.77
2022-10-05T10:26:47.798Z,101230.61
2022-10-05T10:29:30.811Z,101231.49
2022-10-05T10:32:10.470Z,101234.49
2022-10-05T10:34:57.166Z,101235.38
2022-10-05T10:37:43.819Z,101229.52
2022-10-05T10:40:20.511Z,101225.92
2022-10-05T10:43:06.997Z,101225.36
2022-10-05T10:45:45.567Z,101223.84
2022-10-05T10:48:19.557Z,101224.30
2022-10-05T10:50:58.688Z,101225.11
2022-10-05T10:53:37.738Z,101229.08
2022-10-05T10:56:12.038Z,101220.18
2022-10-05T10:58:51.764Z,101212.25
2022-10-05T11:01:28.769Z,101204.77
2022-10-05T11:04:16.024Z,101197.77
2022-10-05T11:06:56.750Z,101199.37
2022-10-05T11:09:24.398Z,101198.83
2022-10-05T11:12:15.663Z,101198.00
2022-10-05T11:15:01.890Z,101195.77
2022-10-05T11:17:46.089Z,101202.98
2022-10-05T11:20:13.721Z,101203.08
2022-10-05T11:23:00.445Z,101194.27
2022-10-05T11:25:28.122Z,101191.80
2022-10-05T11:28:14.650Z,101195.66
2022-10-05T11:30:42.745Z,101200.86
2022-10-05T11:33:29.789Z,101206.17
2022-10-05T11:35:57.429Z,101207.52
2022-10-05T11:38:38.959Z,101206.73
2022-10-05T11:41:09.357Z,101206.48
2022-10-05T11:43:37.478Z,101207.98
2022-10-05T11:46:17.591Z,101207.80
2022-10-05T11:48:54.678Z,101204.48
2022-10-05T11:51:34.613Z,101205.33
2022-10-05T11:54:02.924Z,101212.53
2022-10-05T11:56:52.286Z,101209.27
2022-10-05T11:59:34.742Z,101201.06
2022-10-05T12:02:13.590Z,101198.89
2022-10-05T12:05:00.244Z,101199.52
2022-10-05T12:07:55.371Z,101193.15
2022-10-05T12:10:38.113Z,101183.65
2022-10-05T12:13:19.417Z,101181.38
2022-10-05T12:15:53.197Z,101175.54
2022-10-05T12:18:24.052Z,101169.92
2022-10-05T12:20:52.397Z,101163.45
2022-10-05T12:23:24.959Z,101158.00
2022-10-05T12:26:14.956Z,101153.69
2022-10-05T12:28:47.618Z,101148.08
2022-10-05T12:31:18.088Z,101145.85
2022-10-05T12:34:04.880Z,101143.88
2022-10-05T12:36:59.668Z,101138.88
2022-10-05T12:39:30.300Z,101137.33
2022-10-05T12:42:15.961Z,101138.39
2022-10-05T12:44:43.643Z,101137.48
2022-10-05T12:47:35.379Z,101138.03
2022-10-05T12:50:10.674Z,101130.58
2022-10-05T12:52:43.412Z,101130.42
2022-10-05T12:55:11.049Z,101130.26
2022-10-05T12:57:53.320Z,101128.20
2022-10-05T13:00:23.123Z,101127.52
2022-10-05T13:02:57.583Z,101128.30
2022-10-05T13:05:34.601Z,101128.10
2022-10-05T13:08:14.607Z,101124.20
2022-10-05T13:10:42.277Z,101121.15
2022-10-05T13:13:22.307Z,101122.33
2022-10-05T13:15:58.943Z,101120.21
2022-10-05T13:18:34.924Z,101121.20
2022-10-05T13:21:05.955Z,101124.19
2022-10-05T13:23:40.553Z,101117.20
2022-10-05T13:26:14.791Z,101114.09
2022-10-05T13:29:15.215Z,101112.38
2022-10-05T13:31:54.430Z,101110.49
2022-10-05T13:34:25.158Z,101106.20
2022-10-05T13:36:59.446Z,101103.21
2022-10-05T13:39:35.864Z,101099.10
2022-10-05T13:42:13.204Z,101095.78
2022-10-05T13:44:54.100Z,101091.34
2022-10-05T13:47:21.919Z,101087.83
2022-10-05T13:49:53.810Z,101088.98
2022-10-05T13:52:42.317Z,101086.36
2022-10-05T13:55:28.620Z,101085.70
2022-10-05T13:57:59.323Z,101081.79
2022-10-05T14:00:27.437Z,101073.89
2022-10-05T14:02:57.518Z,101069.61
2022-10-05T14:05:29.925Z,101071.41
2022-10-05T14:07:58.625Z,101066.75
2022-10-05T14:10:31.519Z,101067.48
2022-10-05T14:12:59.831Z,101066.79
2022-10-05T14:15:42.071Z,101069.49
2022-10-05T14:18:24.693Z,101065.73
2022-10-05T14:21:00.761Z,101060.31
2022-10-05T14:23:29.190Z,101058.92
2022-10-05T14:25:57.416Z,101057.79
2022-10-05T14:28:39.278Z,101057.49
2022-10-05T14:31:14.634Z,101058.68
2022-10-05T14:33:42.892Z,101058.29
2022-10-05T14:36:32.523Z,101050.70
2022-10-05T14:39:04.870Z,101047.31
2022-10-05T14:41:37.729Z,101050.69
2022-10-05T14:44:05.440Z,101046.92
2022-10-05T14:46:35.931Z,101049.57
2022-10-05T14:49:21.213Z,101045.93
2022-10-05T14:51:49.856Z,101047.08
2022-10-05T14:54:36.637Z,101042.88
2022-10-05T14:57:16.297Z,101039.41
2022-10-05T15:00:02.350Z,101037.41
2022-10-05T15:02:36.384Z,101033.98
2022-10-05T15:05:17.084Z,101031.52
2022-10-05T15:07:47.931Z,101029.80
2022-10-05T15:10:19.181Z,101027.52
2022-10-05T15:12:48.500Z,101021.80
2022-10-05T15:15:19.411Z,101018.83
2022-10-05T15:17:52.708Z,101017.01
2022-10-05T15:20:24.623Z,101017.24
2022-10-05T15:22:57.262Z,101020.13
2022-10-05T15:25:33.446Z,101016.03
2022-10-05T15:28:06.800Z,101021.66
2022-10-05T15:30:36.981Z,101022.25
2022-10-05T15:33:09.320Z,101023.80
2022-10-05T15:35:45.903Z,101019.06
2022-10-05T15:38:25.713Z,101016.67
2022-10-05T15:41:06.782Z,101020.46
2022-10-05T15:43:46.043Z,101021.52
2022-10-05T15:46:56.612Z,101017.89
2022-10-05T15:49:29.658Z,101013.09
2022-10-05T15:52:17.745Z,101009.52
2022-10-05T15:55:08.154Z,101010.46
2022-10-05T15:57:43.593Z,101012.55
2022-10-05T16:00:15.744Z,101014.40
2022-10-05T16:02:43.430Z,101015.18
2022-10-05T16:05:48.961Z,101012.83
2022-10-05T16:08:55.895Z,101011.34
2022-10-05T16:11:40.605Z,101012.41
2022-10-05T16:14:29.794Z,101008.98
2022-10-05T16:17:00.784Z,101007.94
2022-10-05T16:19:37.098Z,101009.91
2022-10-05T16:22:23.501Z,101010.35
2022-10-05T16:24:51.760Z,101010.64
2022-10-05T16:27:26.908Z,101012.53
2022-10-05T16:30:03.341Z,101011.83
2022-10-05T16:32:37.861Z,101012.94
2022-10-05T16:35:25.008Z,101009.69
2022-10-05T16:37:56.355Z,101012.68
2022-10-05T16:40:30.201Z,101015.38
2022-10-05T16:43:13.156Z,101015.87
2022-10-05T16:45:45.639Z,101021.23
2022-10-05T16:48:30.738Z,101019.31
2022-10-05T16:51:13.966Z,101024.23
2022-10-05T16:53:44.589Z,101022.37
2022-10-05T16:56:14.804Z,101018.08
2022-10-05T16:59:01.460Z,101021.58
2022-10-05T17:01:42.413Z,101021.47
2022-10-05T17:04:24.171Z,101027.16
2022-10-05T17:07:01.549Z,101033.48
2022-10-05T17:09:42.998Z,101034.40
2022-10-05T17:12:26.828Z,101036.07
2022-10-05T17:15:33.356Z,101035.84
2022-10-05T17:18:01.007Z,101035.32
2022-10-05T17:20:42.700Z,101035.34
2022-10-05T17:23:18.105Z,101040.98
2022-10-05T17:25:49.206Z,101040.17
2022-10-05T17:28:36.182Z,101043.23
2022-10-05T17:31:10.044Z,101041.29
2022-10-05T17:33:56.559Z,101041.38
2022-10-05T17:36:36.227Z,101041.77
2022-10-05T17:39:15.665Z,101038.79
2022-10-05T17:41:44.285Z,101038.59
2022-10-05T17:44:13.511Z,101038.56
2022-10-05T17:46:46.093Z,101036.99
2022-10-05T17:49:16.973Z,101037.11
2022-10-05T17:52:03.610Z,101032.29
2022-10-05T17:55:10.054Z,101033.02
2022-10-05T17:57:39.717Z,101033.92
2022-10-05T18:00:29.521Z,101031.84
2022-10-05T18:02:58.278Z,101029.65
2022-10-05T18:05:27.905Z,101028.46
2022-10-05T18:08:16.527Z,101026.61
2022-10-05T18:11:04.522Z,101027.09
2022-10-05T18:13:36.967Z,101023.07
2022-10-05T18:16:04.774Z,101022.08
2022-10-05T18:18:35.439Z,101019.88
2022-10-05T18:21:06.151Z,101020.07
2022-10-05T18:23:36.427Z,101021.23
2022-10-05T18:26:27.304Z,101016.96
2022-10-05T18:29:13.795Z,101017.75
2022-10-05T18:31:53.745Z,101015.23
2022-10-05T18:34:40.434Z,101015.41
2022-10-05T18:37:10.908Z,101014.88
2022-10-05T18:39:41.754Z,101016.14
2022-10-05T18:42:28.485Z,101016.06
2022-10-05T18:45:05.536Z,101015.30
2022-10-05T18:47:59.502Z,101014.63
2022-10-05T18:50:32.961Z,101015.75
2022-10-05T18:53:07.111Z,101017.94
2022-10-05T18:55:36.566Z,101022.73
2022-10-05T18:58:19.333Z,101019.45
2022-10-05T19:01:06.183Z,101022.52
2022-10-05T19:03:38.203Z,101023.08
2022-10-05T19:06:15.926Z,101019.67
2022-10-05T19:08:51.585Z,101024.25
2022-10-05T19:11:28.494Z,101024.35
2022-10-05T19:14:15.165Z,101024.88
2022-10-05T19:16:45.763Z,101023.36
2022-10-05T19:20:13.174Z,101024.14
2022-10-05T19:23:05.309Z,101029.93
2022-10-05T19:25:37.969Z,101029.35
2022-10-05T19:28:17.685Z,101031.20
2022-10-05T19:31:14.946Z,101031.63
2022-10-05T19:34:01.740Z,101033.91
2022-10-05T19:36:35.614Z,101037.11
2022-10-05T19:39:06.137Z,101042.31
2022-10-05T19:41:36.831Z,101044.38
2022-10-05T19:44:07.772Z,101046.34
2022-10-05T19:46:55.968Z,101047.45
2022-10-05T19:49:35.906Z,101047.56
2022-10-05T19:52:08.840Z,101046.83
2022-10-05T19:54:36.641Z,101050.92
2022-10-05T19:57:08.608Z,101052.19
2022-10-05T19:59:37.319Z,101057.66
2022-10-05T20:02:05.103Z,101057.80
2022-10-05T20:04:38.053Z,101061.59
2022-10-05T20:07:05.826Z,101066.75
2022-10-05T20:09:53.742Z,101063.77
2022-10-05T20:12:23.151Z,101072.20
2022-10-05T20:15:26.663Z,101072.81
2022-10-05T20:18:13.005Z,101077.61
2022-10-05T20:20:45.803Z,101079.86
2022-10-05T20:23:28.070Z,101088.21
2022-10-05T20:26:15.106Z,101094.46
2022-10-05T20:28:44.571Z,101096.76
2022-10-05T20:31:14.581Z,101098.81
2022-10-05T20:33:42.487Z,101097.70
2022-10-05T20:36:10.181Z,101101.23
2022-10-05T20:38:41.023Z,101096.77
2022-10-05T20:41:09.349Z,101099.48
2022-10-05T20:43:39.181Z,101104.63
2022-10-05T20:46:07.710Z,101107.00
2022-10-05T20:48:42.786Z,101103.52
2022-10-05T20:51:10.404Z,101104.80
2022-10-05T20:53:38.015Z,101105.19
2022-10-05T20:56:05.696Z,101108.36
2022-10-05T20:58:33.388Z,101107.75
2022-10-05T21:01:16.675Z,101107.98
2022-10-05T21:03:44.498Z,101101.88
2022-10-05T21:06:12.602Z,101105.67
2022-10-05T21:08:40.286Z,101108.15
2022-10-05T21:11:09.028Z,101107.17
2022-10-05T21:13:38.671Z,101110.13
2022-10-05T21:16:08.925Z,101105.56
2022-10-05T21:18:37.558Z,101107.08
2022-10-05T21:21:05.270Z,101110.51
2022-10-05T21:23:32.968Z,101107.63
2022-10-05T21:26:01.024Z,101109.34
2022-10-05T21:28:29.279Z,101114.20
2022-10-05T21:30:57.310Z,101112.45
2022-10-05T21:33:25.310Z,101114.04
2022-10-05T21:35:53.316Z,101115.41
2022-10-05T21:38:20.983Z,101115.32
2022-10-05T21:40:48.739Z,101115.00
2022-10-05T21:43:16.441Z,101113.73
2022-10-05T21:45:45.369Z,101115.97
2022-10-05T21:48:15.316Z,101117.55
2022-10-05T21:50:43.185Z,101115.52
2022-10-05T21:53:12.738Z,101120.80
2022-10-05T21:55:41.590Z,101119.91
2022-10-05T21:58:10.622Z,101126.05
2022-10-05T22:00:38.354Z,101130.08
2022-10-05T22:03:06.734Z,101124.71
2022-10-05T22:05:34.873Z,101125.52
2022-10-05T22:08:03.088Z,101125.14
2022-10-05T22:10:31.344Z,101129.95
2022-10-05T22:13:02.886Z,101128.54
2022-10-05T22:15:31.310Z,101130.06
2022-10-05T22:17:59.782Z,101126.56
2022-10-05T22:20:27.532Z,101124.35
2022-10-05T22:22:55.419Z,101123.59
2022-10-05T22:25:23.105Z,101124.31
2022-10-05T22:27:50.925Z,101127.49
2022-10-05T22:30:20.009Z,101126.67
2022-10-05T22:32:47.622Z,101124.23
2022-10-05T22:35:15.270Z,101123.02
2022-10-05T22:37:42.901Z,101120.23
2022-10-05T22:40:11.621Z,101120.21
2022-10-05T22:42:39.331Z,101121.40
2022-10-05T22:45:07.425Z,101125.08
2022-10-05T22:47:35.218Z,101123.35
2022-10-05T22:50:02.913Z,101127.54
2022-10-05T22:52:31.019Z,101127.80
2022-10-05T22:54:58.647Z,101128.02
2022-10-05T22:57:26.269Z,101129.20
2022-10-05T22:59:54.025Z,101132.16
2022-10-05T23:02:21.820Z,101131.65
2022-10-05T23:04:49.514Z,101130.29
2022-10-05T23:07:17.135Z,101132.08
2022-10-05T23:09:44.738Z,101135.48
2022-10-05T23:12:14.363Z,101139.56
2022-10-05T23:14:41.968Z,101137.35
2022-10-05T23:17:09.650Z,101137.86
2022-10-05T23:19:37.308Z,101139.93
2022-10-05T23:22:04.948Z,101141.30
2022-10-05T23:24:32.613Z,101134.99
2022-10-05T23:27:00.239Z,101140.63
2022-10-05T23:29:28.782Z,101138.33
2022-10-05T23:31:56.447Z,101139.04
2022-10-05T23:34:25.831Z,101141.52
2022-10-05T23:36:53.473Z,101141.15
2022-10-05T23:39:21.105Z,101148.54
2022-10-05T23:41:48.718Z,101149.52
2022-10-05T23:44:16.366Z,101153.27
2022-10-05T23:46:44.140Z,101159.83
2022-10-05T23:49:12.029Z,101163.17
2022-10-05T23:51:39.680Z,101165.83
2022-10-05T23:54:07.390Z,101168.55
2022-10-05T23:56:35.364Z,101167.48
2022-10-05T23:59:03.268Z,101166.00
